sensor_id;sensor_type;location;lat;lon;timestamp;temperature;humidity
65478;SHT31;53678;39.642;22.430;2022-08-19T00:01:13;27.57;49.05
65478;SHT31;53678;39.642;22.430;2022-08-19T00:03:39;27.71;49.51
65478;SHT31;53678;39.642;22.430;2022-08-19T00:06:05;27.51;50.00
65478;SHT31;53678;39.642;22.430;2022-08-19T00:08:31;27.55;50.14
65478;SHT31;53678;39.642;22.430;2022-08-19T00:10:57;27.22;51.33
65478;SHT31;53678;39.642;22.430;2022-08-19T00:13:23;27.37;51.16
65478;SHT31;53678;39.642;22.430;2022-08-19T00:15:49;27.35;51.11
65478;SHT31;53678;39.642;22.430;2022-08-19T00:18:15;27.26;50.99
65478;SHT31;53678;39.642;22.430;2022-08-19T00:20:40;27.00;51.78
65478;SHT31;53678;39.642;22.430;2022-08-19T00:23:07;26.96;51.87
65478;SHT31;53678;39.642;22.430;2022-08-19T00:25:33;27.13;51.60
65478;SHT31;53678;39.642;22.430;2022-08-19T00:27:59;27.24;51.14
65478;SHT31;53678;39.642;22.430;2022-08-19T00:30:25;27.37;51.13
65478;SHT31;53678;39.642;22.430;2022-08-19T00:32:53;27.52;50.18
65478;SHT31;53678;39.642;22.430;2022-08-19T00:35:21;26.85;53.13
65478;SHT31;53678;39.642;22.430;2022-08-19T00:37:48;26.90;53.06
65478;SHT31;53678;39.642;22.430;2022-08-19T00:40:15;26.46;53.76
65478;SHT31;53678;39.642;22.430;2022-08-19T00:42:41;26.36;54.94
65478;SHT31;53678;39.642;22.430;2022-08-19T00:45:16;26.31;55.67
65478;SHT31;53678;39.642;22.430;2022-08-19T00:47:44;26.51;55.25
65478;SHT31;53678;39.642;22.430;2022-08-19T00:50:13;26.62;54.82
65478;SHT31;53678;39.642;22.430;2022-08-19T00:52:42;26.76;54.47
65478;SHT31;53678;39.642;22.430;2022-08-19T00:55:15;26.78;54.33
65478;SHT31;53678;39.642;22.430;2022-08-19T00:57:46;26.79;54.39
65478;SHT31;53678;39.642;22.430;2022-08-19T01:00:16;26.96;53.99
65478;SHT31;53678;39.642;22.430;2022-08-19T01:02:43;26.72;54.67
65478;SHT31;53678;39.642;22.430;2022-08-19T01:05:15;26.87;54.34
65478;SHT31;53678;39.642;22.430;2022-08-19T01:07:44;26.71;54.67
65478;SHT31;53678;39.642;22.430;2022-08-19T01:10:13;26.63;54.84
65478;SHT31;53678;39.642;22.430;2022-08-19T01:12:40;26.55;54.34
65478;SHT31;53678;39.642;22.430;2022-08-19T01:15:09;26.53;53.50
65478;SHT31;53678;39.642;22.430;2022-08-19T01:17:38;26.49;52.97
65478;SHT31;53678;39.642;22.430;2022-08-19T01:20:06;26.49;53.19
65478;SHT31;53678;39.642;22.430;2022-08-19T01:22:44;26.66;51.78
65478;SHT31;53678;39.642;22.430;2022-08-19T01:25:13;26.69;51.42
65478;SHT31;53678;39.642;22.430;2022-08-19T01:27:45;26.59;51.14
65478;SHT31;53678;39.642;22.430;2022-08-19T01:30:26;26.55;50.77
65478;SHT31;53678;39.642;22.430;2022-08-19T01:32:53;26.78;50.41
65478;SHT31;53678;39.642;22.430;2022-08-19T01:35:20;26.97;49.89
65478;SHT31;53678;39.642;22.430;2022-08-19T01:37:57;26.99;49.62
65478;SHT31;53678;39.642;22.430;2022-08-19T01:40:25;27.00;49.73
65478;SHT31;53678;39.642;22.430;2022-08-19T01:42:52;26.79;50.12
65478;SHT31;53678;39.642;22.430;2022-08-19T01:45:21;26.71;50.91
65478;SHT31;53678;39.642;22.430;2022-08-19T01:47:48;26.72;51.02
65478;SHT31;53678;39.642;22.430;2022-08-19T01:50:14;26.79;50.49
65478;SHT31;53678;39.642;22.430;2022-08-19T01:52:41;26.83;49.82
65478;SHT31;53678;39.642;22.430;2022-08-19T01:55:11;27.16;49.01
65478;SHT31;53678;39.642;22.430;2022-08-19T01:57:39;26.21;51.89
65478;SHT31;53678;39.642;22.430;2022-08-19T02:00:09;25.88;52.56
65478;SHT31;53678;39.642;22.430;2022-08-19T02:02:39;26.09;52.29
65478;SHT31;53678;39.642;22.430;2022-08-19T02:05:06;26.18;52.20
65478;SHT31;53678;39.642;22.430;2022-08-19T02:07:33;26.34;51.75
65478;SHT31;53678;39.642;22.430;2022-08-19T02:10:05;26.41;51.51
65478;SHT31;53678;39.642;22.430;2022-08-19T02:12:31;26.60;50.86
65478;SHT31;53678;39.642;22.430;2022-08-19T02:14:58;26.41;51.52
65478;SHT31;53678;39.642;22.430;2022-08-19T02:17:25;26.39;51.18
65478;SHT31;53678;39.642;22.430;2022-08-19T02:19:50;25.86;53.08
65478;SHT31;53678;39.642;22.430;2022-08-19T02:22:16;25.79;53.07
65478;SHT31;53678;39.642;22.430;2022-08-19T02:24:42;25.79;53.17
65478;SHT31;53678;39.642;22.430;2022-08-19T02:27:08;25.12;54.90
65478;SHT31;53678;39.642;22.430;2022-08-19T02:29:33;25.36;54.27
65478;SHT31;53678;39.642;22.430;2022-08-19T02:32:00;25.67;53.52
65478;SHT31;53678;39.642;22.430;2022-08-19T02:34:25;25.40;54.03
65478;SHT31;53678;39.642;22.430;2022-08-19T02:36:51;25.39;54.14
65478;SHT31;53678;39.642;22.430;2022-08-19T02:39:17;25.56;53.73
65478;SHT31;53678;39.642;22.430;2022-08-19T02:41:43;25.14;54.47
65478;SHT31;53678;39.642;22.430;2022-08-19T02:44:09;23.92;60.24
65478;SHT31;53678;39.642;22.430;2022-08-19T02:46:35;24.29;58.53
65478;SHT31;53678;39.642;22.430;2022-08-19T02:49:06;24.61;57.26
65478;SHT31;53678;39.642;22.430;2022-08-19T02:51:35;24.84;55.99
65478;SHT31;53678;39.642;22.430;2022-08-19T02:54:03;25.16;55.72
65478;SHT31;53678;39.642;22.430;2022-08-19T02:56:30;25.51;54.22
65478;SHT31;53678;39.642;22.430;2022-08-19T02:58:56;25.69;53.63
65478;SHT31;53678;39.642;22.430;2022-08-19T03:01:31;24.67;56.18
65478;SHT31;53678;39.642;22.430;2022-08-19T03:03:59;24.68;55.50
65478;SHT31;53678;39.642;22.430;2022-08-19T03:06:26;25.23;54.50
65478;SHT31;53678;39.642;22.430;2022-08-19T03:08:52;24.50;57.55
65478;SHT31;53678;39.642;22.430;2022-08-19T03:11:21;24.72;56.84
65478;SHT31;53678;39.642;22.430;2022-08-19T03:13:48;24.12;57.79
65478;SHT31;53678;39.642;22.430;2022-08-19T03:16:18;24.23;57.33
65478;SHT31;53678;39.642;22.430;2022-08-19T03:18:44;24.59;56.42
65478;SHT31;53678;39.642;22.430;2022-08-19T03:21:17;24.44;56.91
65478;SHT31;53678;39.642;22.430;2022-08-19T03:23:43;24.46;55.29
65478;SHT31;53678;39.642;22.430;2022-08-19T03:26:10;24.40;55.77
65478;SHT31;53678;39.642;22.430;2022-08-19T03:28:35;23.54;57.51
65478;SHT31;53678;39.642;22.430;2022-08-19T03:31:11;23.64;56.88
65478;SHT31;53678;39.642;22.430;2022-08-19T03:33:38;24.01;56.12
65478;SHT31;53678;39.642;22.430;2022-08-19T03:38:40;24.12;56.14
65478;SHT31;53678;39.642;22.430;2022-08-19T03:41:08;24.43;55.91
65478;SHT31;53678;39.642;22.430;2022-08-19T03:43:35;24.82;54.80
65478;SHT31;53678;39.642;22.430;2022-08-19T03:46:11;24.80;54.73
65478;SHT31;53678;39.642;22.430;2022-08-19T03:48:40;24.77;55.23
65478;SHT31;53678;39.642;22.430;2022-08-19T03:51:07;24.99;55.02
65478;SHT31;53678;39.642;22.430;2022-08-19T03:53:34;23.85;57.14
65478;SHT31;53678;39.642;22.430;2022-08-19T03:56:00;23.89;57.72
65478;SHT31;53678;39.642;22.430;2022-08-19T03:58:28;24.53;56.05
65478;SHT31;53678;39.642;22.430;2022-08-19T04:00:55;25.05;54.66
65478;SHT31;53678;39.642;22.430;2022-08-19T04:03:21;23.93;57.44
65478;SHT31;53678;39.642;22.430;2022-08-19T04:05:47;24.70;55.71
65478;SHT31;53678;39.642;22.430;2022-08-19T04:08:14;24.96;54.73
65478;SHT31;53678;39.642;22.430;2022-08-19T04:10:43;25.46;53.76
65478;SHT31;53678;39.642;22.430;2022-08-19T04:13:09;25.91;52.56
65478;SHT31;53678;39.642;22.430;2022-08-19T04:15:39;25.93;52.91
65478;SHT31;53678;39.642;22.430;2022-08-19T04:18:08;26.36;52.28
65478;SHT31;53678;39.642;22.430;2022-08-19T04:20:45;26.85;50.94
65478;SHT31;53678;39.642;22.430;2022-08-19T04:23:12;26.24;52.29
65478;SHT31;53678;39.642;22.430;2022-08-19T04:25:40;25.81;53.84
65478;SHT31;53678;39.642;22.430;2022-08-19T04:28:07;25.54;54.51
65478;SHT31;53678;39.642;22.430;2022-08-19T04:30:46;26.17;53.60
65478;SHT31;53678;39.642;22.430;2022-08-19T04:33:14;25.81;54.43
65478;SHT31;53678;39.642;22.430;2022-08-19T04:35:43;26.17;53.41
65478;SHT31;53678;39.642;22.430;2022-08-19T04:38:10;27.33;50.60
65478;SHT31;53678;39.642;22.430;2022-08-19T04:40:40;26.75;51.51
65478;SHT31;53678;39.642;22.430;2022-08-19T04:43:25;27.37;50.35
65478;SHT31;53678;39.642;22.430;2022-08-19T04:45:51;26.89;52.16
65478;SHT31;53678;39.642;22.430;2022-08-19T04:48:17;28.19;49.16
65478;SHT31;53678;39.642;22.430;2022-08-19T04:50:56;29.39;47.07
65478;SHT31;53678;39.642;22.430;2022-08-19T04:53:30;28.60;48.80
65478;SHT31;53678;39.642;22.430;2022-08-19T04:55:57;29.46;47.18
65478;SHT31;53678;39.642;22.430;2022-08-19T04:58:25;30.59;45.10
65478;SHT31;53678;39.642;22.430;2022-08-19T05:00:51;31.19;43.95
65478;SHT31;53678;39.642;22.430;2022-08-19T05:03:17;31.27;43.48
65478;SHT31;53678;39.642;22.430;2022-08-19T05:05:44;29.53;47.28
65478;SHT31;53678;39.642;22.430;2022-08-19T05:08:12;28.87;48.70
65478;SHT31;53678;39.642;22.430;2022-08-19T05:10:39;30.58;45.48
65478;SHT31;53678;39.642;22.430;2022-08-19T05:13:05;31.58;43.61
65478;SHT31;53678;39.642;22.430;2022-08-19T05:15:31;32.08;42.18
65478;SHT31;53678;39.642;22.430;2022-08-19T05:17:57;32.26;41.52
65478;SHT31;53678;39.642;22.430;2022-08-19T05:20:41;32.76;40.70
65478;SHT31;53678;39.642;22.430;2022-08-19T05:23:36;32.74;40.10
65478;SHT31;53678;39.642;22.430;2022-08-19T05:26:02;32.92;39.53
65478;SHT31;53678;39.642;22.430;2022-08-19T05:28:28;33.00;39.68
65478;SHT31;53678;39.642;22.430;2022-08-19T05:30:54;33.34;38.98
65478;SHT31;53678;39.642;22.430;2022-08-19T05:33:21;33.58;38.73
65478;SHT31;53678;39.642;22.430;2022-08-19T05:35:48;32.77;40.03
65478;SHT31;53678;39.642;22.430;2022-08-19T05:38:18;31.69;42.78
65478;SHT31;53678;39.642;22.430;2022-08-19T05:40:44;33.07;40.10
65478;SHT31;53678;39.642;22.430;2022-08-19T05:43:14;31.30;42.74
65478;SHT31;53678;39.642;22.430;2022-08-19T05:45:42;32.12;41.42
65478;SHT31;53678;39.642;22.430;2022-08-19T05:48:09;32.37;40.83
65478;SHT31;53678;39.642;22.430;2022-08-19T05:50:40;32.98;39.62
65478;SHT31;53678;39.642;22.430;2022-08-19T05:53:07;29.81;46.22
65478;SHT31;53678;39.642;22.430;2022-08-19T05:55:35;31.26;43.37
65478;SHT31;53678;39.642;22.430;2022-08-19T05:58:02;31.68;42.35
65478;SHT31;53678;39.642;22.430;2022-08-19T06:00:28;29.02;46.78
65478;SHT31;53678;39.642;22.430;2022-08-19T06:02:55;29.02;47.37
65478;SHT31;53678;39.642;22.430;2022-08-19T06:05:22;30.14;45.33
65478;SHT31;53678;39.642;22.430;2022-08-19T06:07:47;30.89;44.51
65478;SHT31;53678;39.642;22.430;2022-08-19T06:10:14;30.87;44.31
65478;SHT31;53678;39.642;22.430;2022-08-19T06:12:40;29.33;48.25
65478;SHT31;53678;39.642;22.430;2022-08-19T06:15:10;29.67;46.90
65478;SHT31;53678;39.642;22.430;2022-08-19T06:17:36;30.34;45.64
65478;SHT31;53678;39.642;22.430;2022-08-19T06:20:08;30.42;45.26
65478;SHT31;53678;39.642;22.430;2022-08-19T06:22:39;29.67;46.65
65478;SHT31;53678;39.642;22.430;2022-08-19T06:25:06;29.59;47.55
65478;SHT31;53678;39.642;22.430;2022-08-19T06:27:35;29.81;46.83
65478;SHT31;53678;39.642;22.430;2022-08-19T06:30:02;29.88;46.23
65478;SHT31;53678;39.642;22.430;2022-08-19T06:32:28;29.97;45.36
65478;SHT31;53678;39.642;22.430;2022-08-19T06:34:54;30.27;44.67
65478;SHT31;53678;39.642;22.430;2022-08-19T06:37:20;29.78;46.65
65478;SHT31;53678;39.642;22.430;2022-08-19T06:39:48;30.41;45.01
65478;SHT31;53678;39.642;22.430;2022-08-19T06:42:14;30.07;45.23
65478;SHT31;53678;39.642;22.430;2022-08-19T06:44:46;30.68;43.97
65478;SHT31;53678;39.642;22.430;2022-08-19T06:47:18;29.97;45.27
65478;SHT31;53678;39.642;22.430;2022-08-19T06:49:44;30.18;45.57
65478;SHT31;53678;39.642;22.430;2022-08-19T06:52:12;30.31;45.15
65478;SHT31;53678;39.642;22.430;2022-08-19T06:54:38;30.29;44.54
65478;SHT31;53678;39.642;22.430;2022-08-19T06:57:05;30.68;44.29
65478;SHT31;53678;39.642;22.430;2022-08-19T06:59:32;30.08;45.16
65478;SHT31;53678;39.642;22.430;2022-08-19T07:02:01;31.17;43.32
65478;SHT31;53678;39.642;22.430;2022-08-19T07:04:30;31.75;41.90
65478;SHT31;53678;39.642;22.430;2022-08-19T07:07:05;32.10;41.81
65478;SHT31;53678;39.642;22.430;2022-08-19T07:09:40;32.47;40.76
65478;SHT31;53678;39.642;22.430;2022-08-19T07:12:08;32.88;40.31
65478;SHT31;53678;39.642;22.430;2022-08-19T07:14:35;33.24;39.50
65478;SHT31;53678;39.642;22.430;2022-08-19T07:17:07;33.08;39.37
65478;SHT31;53678;39.642;22.430;2022-08-19T07:19:33;32.06;41.07
65478;SHT31;53678;39.642;22.430;2022-08-19T07:22:04;32.10;41.28
65478;SHT31;53678;39.642;22.430;2022-08-19T07:24:31;32.43;40.62
65478;SHT31;53678;39.642;22.430;2022-08-19T07:26:59;32.61;40.67
65478;SHT31;53678;39.642;22.430;2022-08-19T07:29:33;30.93;43.90
65478;SHT31;53678;39.642;22.430;2022-08-19T07:32:01;32.37;41.66
65478;SHT31;53678;39.642;22.430;2022-08-19T07:34:29;32.78;40.69
65478;SHT31;53678;39.642;22.430;2022-08-19T07:36:55;31.82;42.73
65478;SHT31;53678;39.642;22.430;2022-08-19T07:39:33;32.37;41.67
65478;SHT31;53678;39.642;22.430;2022-08-19T07:42:02;32.29;41.33
65478;SHT31;53678;39.642;22.430;2022-08-19T07:44:28;32.04;41.71
65478;SHT31;53678;39.642;22.430;2022-08-19T07:46:55;32.35;41.42
65478;SHT31;53678;39.642;22.430;2022-08-19T07:49:22;32.32;41.11
65478;SHT31;53678;39.642;22.430;2022-08-19T07:51:57;32.46;40.80
65478;SHT31;53678;39.642;22.430;2022-08-19T07:54:25;32.98;40.18
65478;SHT31;53678;39.642;22.430;2022-08-19T07:56:52;32.66;40.95
65478;SHT31;53678;39.642;22.430;2022-08-19T07:59:19;32.46;41.04
65478;SHT31;53678;39.642;22.430;2022-08-19T08:01:46;32.84;39.77
65478;SHT31;53678;39.642;22.430;2022-08-19T08:04:13;32.33;40.77
65478;SHT31;53678;39.642;22.430;2022-08-19T08:06:58;32.84;40.06
65478;SHT31;53678;39.642;22.430;2022-08-19T08:09:44;33.15;39.25
65478;SHT31;53678;39.642;22.430;2022-08-19T08:12:14;33.63;38.51
65478;SHT31;53678;39.642;22.430;2022-08-19T08:14:46;32.90;37.34
65478;SHT31;53678;39.642;22.430;2022-08-19T08:17:14;33.72;37.02
65478;SHT31;53678;39.642;22.430;2022-08-19T08:19:41;34.09;36.84
65478;SHT31;53678;39.642;22.430;2022-08-19T08:22:08;34.50;36.39
65478;SHT31;53678;39.642;22.430;2022-08-19T08:24:54;34.47;36.28
65478;SHT31;53678;39.642;22.430;2022-08-19T08:27:24;34.10;37.04
65478;SHT31;53678;39.642;22.430;2022-08-19T08:29:50;33.35;38.12
65478;SHT31;53678;39.642;22.430;2022-08-19T08:32:16;33.43;37.31
65478;SHT31;53678;39.642;22.430;2022-08-19T08:34:42;33.49;37.35
65478;SHT31;53678;39.642;22.430;2022-08-19T08:37:08;32.68;37.85
65478;SHT31;53678;39.642;22.430;2022-08-19T08:39:34;33.11;37.45
65478;SHT31;53678;39.642;22.430;2022-08-19T08:42:13;33.61;36.55
65478;SHT31;53678;39.642;22.430;2022-08-19T08:44:58;33.68;36.47
65478;SHT31;53678;39.642;22.430;2022-08-19T08:47:26;33.73;35.87
65478;SHT31;53678;39.642;22.430;2022-08-19T08:50:03;34.00;35.66
65478;SHT31;53678;39.642;22.430;2022-08-19T08:52:34;33.96;36.06
65478;SHT31;53678;39.642;22.430;2022-08-19T08:55:10;34.33;35.20
65478;SHT31;53678;39.642;22.430;2022-08-19T09:00:30;33.80;35.87
65478;SHT31;53678;39.642;22.430;2022-08-19T09:02:58;34.24;35.13
65478;SHT31;53678;39.642;22.430;2022-08-19T09:08:10;34.58;34.53
65478;SHT31;53678;39.642;22.430;2022-08-19T09:11:09;34.44;34.76
65478;SHT31;53678;39.642;22.430;2022-08-19T09:13:49;34.28;34.81
65478;SHT31;53678;39.642;22.430;2022-08-19T09:16:20;34.25;34.48
65478;SHT31;53678;39.642;22.430;2022-08-19T09:18:52;34.21;34.71
65478;SHT31;53678;39.642;22.430;2022-08-19T09:21:22;34.61;34.49
65478;SHT31;53678;39.642;22.430;2022-08-19T09:23:49;34.54;34.36
65478;SHT31;53678;39.642;22.430;2022-08-19T09:26:18;34.71;34.06
65478;SHT31;53678;39.642;22.430;2022-08-19T09:28:46;34.96;33.49
65478;SHT31;53678;39.642;22.430;2022-08-19T09:31:14;34.92;33.61
65478;SHT31;53678;39.642;22.430;2022-08-19T09:33:40;34.75;33.81
65478;SHT31;53678;39.642;22.430;2022-08-19T09:36:11;34.77;33.74
65478;SHT31;53678;39.642;22.430;2022-08-19T09:38:38;34.79;33.76
65478;SHT31;53678;39.642;22.430;2022-08-19T09:41:08;34.94;33.75
65478;SHT31;53678;39.642;22.430;2022-08-19T09:43:35;35.17;33.87
65478;SHT31;53678;39.642;22.430;2022-08-19T09:46:04;34.85;33.67
65478;SHT31;53678;39.642;22.430;2022-08-19T09:48:32;34.94;33.76
65478;SHT31;53678;39.642;22.430;2022-08-19T09:51:09;34.86;33.58
65478;SHT31;53678;39.642;22.430;2022-08-19T09:53:37;35.07;33.53
65478;SHT31;53678;39.642;22.430;2022-08-19T09:56:04;35.56;33.03
65478;SHT31;53678;39.642;22.430;2022-08-19T09:58:32;35.67;32.73
65478;SHT31;53678;39.642;22.430;2022-08-19T10:00:59;35.85;32.78
65478;SHT31;53678;39.642;22.430;2022-08-19T10:03:26;35.98;32.41
65478;SHT31;53678;39.642;22.430;2022-08-19T10:05:53;36.12;32.34
65478;SHT31;53678;39.642;22.430;2022-08-19T10:08:22;36.31;32.07
65478;SHT31;53678;39.642;22.430;2022-08-19T10:10:49;36.25;31.65
65478;SHT31;53678;39.642;22.430;2022-08-19T10:13:22;36.24;31.60
65478;SHT31;53678;39.642;22.430;2022-08-19T10:15:49;36.01;31.72
65478;SHT31;53678;39.642;22.430;2022-08-19T10:18:19;35.90;31.79
65478;SHT31;53678;39.642;22.430;2022-08-19T10:20:47;36.12;31.37
65478;SHT31;53678;39.642;22.430;2022-08-19T10:23:14;36.08;30.57
65478;SHT31;53678;39.642;22.430;2022-08-19T10:25:41;36.04;30.82
65478;SHT31;53678;39.642;22.430;2022-08-19T10:28:08;36.08;30.83
65478;SHT31;53678;39.642;22.430;2022-08-19T10:30:39;36.14;30.46
65478;SHT31;53678;39.642;22.430;2022-08-19T10:33:05;36.06;30.57
65478;SHT31;53678;39.642;22.430;2022-08-19T10:35:32;36.22;30.41
65478;SHT31;53678;39.642;22.430;2022-08-19T10:37:58;36.33;30.47
65478;SHT31;53678;39.642;22.430;2022-08-19T10:40:26;35.78;30.89
65478;SHT31;53678;39.642;22.430;2022-08-19T10:42:53;36.31;30.69
65478;SHT31;53678;39.642;22.430;2022-08-19T10:45:21;36.28;30.14
65478;SHT31;53678;39.642;22.430;2022-08-19T10:47:54;35.91;30.31
65478;SHT31;53678;39.642;22.430;2022-08-19T10:50:20;36.12;30.45
65478;SHT31;53678;39.642;22.430;2022-08-19T10:53:07;36.70;29.85
65478;SHT31;53678;39.642;22.430;2022-08-19T10:55:36;36.87;29.58
65478;SHT31;53678;39.642;22.430;2022-08-19T10:58:21;36.45;30.05
65478;SHT31;53678;39.642;22.430;2022-08-19T11:00:54;36.86;29.53
65478;SHT31;53678;39.642;22.430;2022-08-19T11:03:20;36.20;29.12
65478;SHT31;53678;39.642;22.430;2022-08-19T11:05:46;36.70;28.80
65478;SHT31;53678;39.642;22.430;2022-08-19T11:08:14;36.97;28.07
65478;SHT31;53678;39.642;22.430;2022-08-19T11:10:43;37.20;27.71
65478;SHT31;53678;39.642;22.430;2022-08-19T11:13:09;37.11;27.67
65478;SHT31;53678;39.642;22.430;2022-08-19T11:15:35;37.23;27.77
65478;SHT31;53678;39.642;22.430;2022-08-19T11:18:01;37.31;27.94
65478;SHT31;53678;39.642;22.430;2022-08-19T11:20:26;37.48;27.51
65478;SHT31;53678;39.642;22.430;2022-08-19T11:22:52;37.54;27.33
65478;SHT31;53678;39.642;22.430;2022-08-19T11:25:19;37.14;27.52
65478;SHT31;53678;39.642;22.430;2022-08-19T11:27:45;37.31;27.65
65478;SHT31;53678;39.642;22.430;2022-08-19T11:30:13;37.55;27.66
65478;SHT31;53678;39.642;22.430;2022-08-19T11:32:41;37.62;26.88
65478;SHT31;53678;39.642;22.430;2022-08-19T11:35:07;37.72;26.73
65478;SHT31;53678;39.642;22.430;2022-08-19T11:37:33;37.74;26.52
65478;SHT31;53678;39.642;22.430;2022-08-19T11:40:04;37.33;26.70
65478;SHT31;53678;39.642;22.430;2022-08-19T11:42:30;37.42;26.89
65478;SHT31;53678;39.642;22.430;2022-08-19T11:45:15;37.74;27.23
65478;SHT31;53678;39.642;22.430;2022-08-19T11:47:40;37.85;26.84
65478;SHT31;53678;39.642;22.430;2022-08-19T11:50:06;37.58;26.72
65478;SHT31;53678;39.642;22.430;2022-08-19T11:52:32;37.54;26.93
65478;SHT31;53678;39.642;22.430;2022-08-19T11:54:58;37.49;26.62
65478;SHT31;53678;39.642;22.430;2022-08-19T11:57:24;37.57;26.41
65478;SHT31;53678;39.642;22.430;2022-08-19T11:59:51;37.61;26.45
65478;SHT31;53678;39.642;22.430;2022-08-19T12:02:18;37.89;26.31
65478;SHT31;53678;39.642;22.430;2022-08-19T12:04:44;37.99;26.59
65478;SHT31;53678;39.642;22.430;2022-08-19T12:07:10;38.09;27.10
65478;SHT31;53678;39.642;22.430;2022-08-19T12:09:36;37.92;26.30
65478;SHT31;53678;39.642;22.430;2022-08-19T12:12:05;37.67;26.20
65478;SHT31;53678;39.642;22.430;2022-08-19T12:14:31;37.17;27.38
65478;SHT31;53678;39.642;22.430;2022-08-19T12:16:57;37.75;27.32
65478;SHT31;53678;39.642;22.430;2022-08-19T12:19:24;37.54;26.67
65478;SHT31;53678;39.642;22.430;2022-08-19T12:21:51;37.47;27.10
65478;SHT31;53678;39.642;22.430;2022-08-19T12:24:18;37.74;26.57
65478;SHT31;53678;39.642;22.430;2022-08-19T12:26:49;37.53;26.95
65478;SHT31;53678;39.642;22.430;2022-08-19T12:29:15;37.75;26.70
65478;SHT31;53678;39.642;22.430;2022-08-19T12:31:41;37.60;27.06
65478;SHT31;53678;39.642;22.430;2022-08-19T12:34:06;37.76;26.68
65478;SHT31;53678;39.642;22.430;2022-08-19T12:36:33;37.89;26.41
65478;SHT31;53678;39.642;22.430;2022-08-19T12:38:58;37.89;25.92
65478;SHT31;53678;39.642;22.430;2022-08-19T12:41:27;37.67;26.24
65478;SHT31;53678;39.642;22.430;2022-08-19T12:43:53;37.68;25.80
65478;SHT31;53678;39.642;22.430;2022-08-19T12:46:19;37.68;26.25
65478;SHT31;53678;39.642;22.430;2022-08-19T12:48:46;37.79;26.26
65478;SHT31;53678;39.642;22.430;2022-08-19T12:51:16;37.92;26.16
65478;SHT31;53678;39.642;22.430;2022-08-19T12:53:43;38.12;26.17
65478;SHT31;53678;39.642;22.430;2022-08-19T12:56:10;38.13;25.89
65478;SHT31;53678;39.642;22.430;2022-08-19T12:58:36;38.15;26.02
65478;SHT31;53678;39.642;22.430;2022-08-19T13:01:07;38.06;26.18
65478;SHT31;53678;39.642;22.430;2022-08-19T13:03:33;37.84;26.28
65478;SHT31;53678;39.642;22.430;2022-08-19T13:05:59;37.51;26.63
65478;SHT31;53678;39.642;22.430;2022-08-19T13:08:25;37.82;26.30
65478;SHT31;53678;39.642;22.430;2022-08-19T13:10:51;37.82;26.31
65478;SHT31;53678;39.642;22.430;2022-08-19T13:13:16;37.89;26.05
65478;SHT31;53678;39.642;22.430;2022-08-19T13:15:42;37.89;26.38
65478;SHT31;53678;39.642;22.430;2022-08-19T13:18:11;37.85;26.56
65478;SHT31;53678;39.642;22.430;2022-08-19T13:20:38;37.88;26.44
65478;SHT31;53678;39.642;22.430;2022-08-19T13:23:07;37.89;26.42
65478;SHT31;53678;39.642;22.430;2022-08-19T13:25:33;37.99;26.51
65478;SHT31;53678;39.642;22.430;2022-08-19T13:27:59;38.08;26.97
65478;SHT31;53678;39.642;22.430;2022-08-19T13:30:27;38.17;26.77
65478;SHT31;53678;39.642;22.430;2022-08-19T13:33:11;38.17;26.89
65478;SHT31;53678;39.642;22.430;2022-08-19T13:35:51;37.93;28.56
65478;SHT31;53678;39.642;22.430;2022-08-19T13:38:21;38.05;28.39
65478;SHT31;53678;39.642;22.430;2022-08-19T13:40:48;37.99;28.77
65478;SHT31;53678;39.642;22.430;2022-08-19T13:43:16;37.78;28.74
65478;SHT31;53678;39.642;22.430;2022-08-19T13:45:43;37.75;29.38
65478;SHT31;53678;39.642;22.430;2022-08-19T13:48:09;37.75;28.97
65478;SHT31;53678;39.642;22.430;2022-08-19T13:50:40;37.34;29.87
65478;SHT31;53678;39.642;22.430;2022-08-19T13:53:07;37.26;30.40
65478;SHT31;53678;39.642;22.430;2022-08-19T13:55:34;37.49;30.27
65478;SHT31;53678;39.642;22.430;2022-08-19T13:58:01;37.60;30.04
65478;SHT31;53678;39.642;22.430;2022-08-19T14:00:32;37.28;30.29
65478;SHT31;53678;39.642;22.430;2022-08-19T14:02:59;37.30;30.09
65478;SHT31;53678;39.642;22.430;2022-08-19T14:05:26;37.37;30.44
65478;SHT31;53678;39.642;22.430;2022-08-19T14:07:53;37.35;31.52
65478;SHT31;53678;39.642;22.430;2022-08-19T14:10:20;37.34;31.47
65478;SHT31;53678;39.642;22.430;2022-08-19T14:12:46;37.20;31.57
65478;SHT31;53678;39.642;22.430;2022-08-19T14:15:13;37.24;31.97
65478;SHT31;53678;39.642;22.430;2022-08-19T14:17:41;37.04;32.07
65478;SHT31;53678;39.642;22.430;2022-08-19T14:20:09;36.89;32.68
65478;SHT31;53678;39.642;22.430;2022-08-19T14:22:37;36.90;32.09
65478;SHT31;53678;39.642;22.430;2022-08-19T14:25:07;36.96;32.25
65478;SHT31;53678;39.642;22.430;2022-08-19T14:27:35;37.03;31.91
65478;SHT31;53678;39.642;22.430;2022-08-19T14:30:06;37.03;31.56
65478;SHT31;53678;39.642;22.430;2022-08-19T14:32:32;36.76;32.19
65478;SHT31;53678;39.642;22.430;2022-08-19T14:34:58;36.49;32.40
65478;SHT31;53678;39.642;22.430;2022-08-19T14:37:24;36.33;32.76
65478;SHT31;53678;39.642;22.430;2022-08-19T14:39:50;36.21;33.14
65478;SHT31;53678;39.642;22.430;2022-08-19T14:42:16;36.29;33.23
65478;SHT31;53678;39.642;22.430;2022-08-19T14:44:42;36.39;33.08
65478;SHT31;53678;39.642;22.430;2022-08-19T14:47:09;36.22;33.41
65478;SHT31;53678;39.642;22.430;2022-08-19T14:49:35;36.21;33.49
65478;SHT31;53678;39.642;22.430;2022-08-19T14:52:01;36.21;33.33
65478;SHT31;53678;39.642;22.430;2022-08-19T14:54:28;36.04;33.68
65478;SHT31;53678;39.642;22.430;2022-08-19T14:56:54;36.11;33.36
65478;SHT31;53678;39.642;22.430;2022-08-19T14:59:20;36.11;32.95
65478;SHT31;53678;39.642;22.430;2022-08-19T15:01:46;36.11;32.87
65478;SHT31;53678;39.642;22.430;2022-08-19T15:04:12;35.93;32.89
65478;SHT31;53678;39.642;22.430;2022-08-19T15:06:38;35.85;33.32
65478;SHT31;53678;39.642;22.430;2022-08-19T15:09:05;35.76;33.42
65478;SHT31;53678;39.642;22.430;2022-08-19T15:11:31;35.72;33.57
65478;SHT31;53678;39.642;22.430;2022-08-19T15:13:58;35.70;34.11
65478;SHT31;53678;39.642;22.430;2022-08-19T15:16:25;35.76;34.51
65478;SHT31;53678;39.642;22.430;2022-08-19T15:18:54;35.47;34.24
65478;SHT31;53678;39.642;22.430;2022-08-19T15:21:20;35.49;34.73
65478;SHT31;53678;39.642;22.430;2022-08-19T15:23:48;35.56;34.66
65478;SHT31;53678;39.642;22.430;2022-08-19T15:26:15;35.43;34.72
65478;SHT31;53678;39.642;22.430;2022-08-19T15:28:42;35.50;34.86
65478;SHT31;53678;39.642;22.430;2022-08-19T15:31:08;35.29;34.08